Time;durP1;ratioP1;P1;durP2;ratioP2;P2;SDS_P1;SDS_P2;PMS_P1;PMS_P2;Temp;Humidity;BMP_temperature;BMP_pressure;BME280_temperature;BME280_humidity;BME280_pressure;Samples;Min_cycle;Max_cycle;Signal;HPM_P1;HPM_P2
2023/05/03 00:01:38;;;;;;;2.77;1.73;;;;;;;10.14;95.39;96104.25;4356375;32;20231;-58
2023/05/03 00:04:04;;;;;;;2.03;1.97;;;;;;;10.02;96.10;96105.59;4367715;32;20207;-58
2023/05/03 00:06:31;;;;;;;1.60;1.50;;;;;;;10.10;95.60;96113.78;4347491;32;20243;-58
2023/05/03 00:08:57;;;;;;;2.33;2.10;;;;;;;9.93;95.98;96108.03;4352412;32;20188;-58
2023/05/03 00:11:22;;;;;;;2.03;1.93;;;;;;;10.01;95.79;96099.50;4340612;32;20211;-58
2023/05/03 00:13:48;;;;;;;1.50;1.43;;;;;;;10.08;95.00;96100.00;4353722;32;20185;-62
2023/05/03 00:16:13;;;;;;;1.83;1.73;;;;;;;10.11;94.85;96110.06;4378521;32;20193;-58
2023/05/03 00:18:39;;;;;;;1.57;1.50;;;;;;;10.08;94.77;96102.66;4348010;32;20335;-57
2023/05/03 00:21:05;;;;;;;1.80;1.67;;;;;;;10.01;94.92;96094.19;4358132;32;20248;-58
2023/05/03 00:23:31;;;;;;;1.50;1.50;;;;;;;9.94;95.08;96099.00;4338457;32;20212;-58
2023/05/03 00:25:59;;;;;;;1.57;1.57;;;;;;;9.85;95.57;96092.66;4349722;32;20267;-58
2023/05/03 00:28:25;;;;;;;7.10;2.67;;;;;;;9.93;95.42;96086.81;4349834;32;20258;-58
2023/05/03 00:30:52;;;;;;;2.87;2.17;;;;;;;9.74;96.27;96094.56;4375363;32;20199;-58
2023/05/03 00:33:18;;;;;;;1.87;1.80;;;;;;;9.80;95.81;96096.09;4367974;32;20248;-58
2023/05/03 00:35:45;;;;;;;2.40;2.30;;;;;;;9.78;95.76;96098.22;4324193;32;20185;-58
2023/05/03 00:38:15;;;;;;;1.50;1.50;;;;;;;9.89;95.54;96086.56;4351574;32;20228;-58
2023/05/03 00:40:42;;;;;;;2.20;2.10;;;;;;;9.90;95.15;96087.34;4336922;32;20247;-58
2023/05/03 00:43:11;;;;;;;1.93;1.83;;;;;;;9.85;94.99;96088.16;4371659;32;20208;-58
2023/05/03 00:45:37;;;;;;;2.70;1.97;;;;;;;9.87;95.04;96082.59;4363063;32;20238;-58
2023/05/03 00:48:04;;;;;;;1.60;1.60;;;;;;;9.96;94.57;96078.31;4336409;32;20245;-57
2023/05/03 00:50:30;;;;;;;2.17;2.07;;;;;;;9.85;94.64;96082.06;4352989;32;20192;-58
2023/05/03 00:52:57;;;;;;;2.33;2.23;;;;;;;9.85;94.62;96082.84;4356893;32;20238;-58
2023/05/03 00:55:31;;;;;;;1.53;1.53;;;;;;;9.82;95.15;96080.75;4334269;32;20197;-58
2023/05/03 00:57:58;;;;;;;1.93;1.87;;;;;;;9.60;95.74;96080.25;4314599;32;20194;-58
2023/05/03 01:00:24;;;;;;;2.13;1.80;;;;;;;9.74;95.18;96083.16;4336884;32;20256;-58
2023/05/03 01:02:50;;;;;;;1.20;1.20;;;;;;;9.59;95.95;96078.66;4341460;32;20228;-58
2023/05/03 01:05:17;;;;;;;1.50;1.50;;;;;;;9.67;95.87;96083.44;4355467;32;20177;-57
2023/05/03 01:08:07;;;;;;;0.80;0.80;;;;;;;9.69;95.70;96085.81;4332480;32;20181;-58
2023/05/03 01:10:52;;;;;;;1.87;1.77;;;;;;;9.66;95.35;96084.50;4315851;32;20197;-58
2023/05/03 01:13:56;;;;;;;1.63;1.63;;;;;;;9.63;95.75;96082.38;4358844;32;20354;-58
2023/05/03 01:16:55;;;;;;;1.43;1.43;;;;;;;9.70;95.31;96084.75;4375447;32;20189;-58
2023/05/03 01:20:10;;;;;;;2.03;1.93;;;;;;;9.50;95.87;96089.03;4345616;32;20192;-58
2023/05/03 01:23:07;;;;;;;1.33;1.33;;;;;;;9.60;95.86;96083.69;4326384;32;20243;-58
2023/05/03 01:25:33;;;;;;;2.30;1.90;;;;;;;9.32;96.85;96086.13;4339657;32;20188;-58
2023/05/03 01:28:00;;;;;;;1.50;1.50;;;;;;;9.21;97.26;96085.31;4364354;32;20185;-57
2023/05/03 01:30:40;;;;;;;2.63;1.73;;;;;;;9.08;96.76;96081.38;4345091;32;20282;-58
2023/05/03 01:33:32;;;;;;;1.87;1.77;;;;;;;9.02;97.03;96078.97;4343939;32;20181;-58
2023/05/03 01:36:08;;;;;;;1.17;1.17;;;;;;;9.13;95.85;96080.59;4362943;32;20185;-57
2023/05/03 01:38:37;;;;;;;1.13;1.13;;;;;;;8.90;96.08;96090.63;4380375;32;20302;-59
2023/05/03 01:41:11;;;;;;;0.70;0.70;;;;;;;9.04;96.03;96090.87;4326681;32;20240;-58
2023/05/03 01:43:48;;;;;;;1.63;1.53;;;;;;;8.91;96.21;96092.22;4335430;32;20193;-58
2023/05/03 01:46:15;;;;;;;0.83;0.83;;;;;;;9.01;96.33;96085.31;4363390;32;20231;-57
2023/05/03 01:48:42;;;;;;;1.77;1.77;;;;;;;9.13;95.91;96084.03;4304675;32;20189;-58
2023/05/03 01:51:10;;;;;;;1.30;1.30;;;;;;;9.16;96.19;96082.69;4325326;32;20288;-57
2023/05/03 01:53:37;;;;;;;3.87;1.60;;;;;;;9.17;96.02;96081.63;4337250;32;20246;-58
2023/05/03 01:56:05;;;;;;;2.20;2.10;;;;;;;9.19;96.29;96069.72;4330213;32;20181;-58
2023/05/03 01:58:31;;;;;;;2.20;2.10;;;;;;;9.28;95.88;96076.06;4343953;32;20184;-58
2023/05/03 02:00:58;;;;;;;2.53;1.33;;;;;;;9.40;95.04;96075.78;4358522;32;20199;-59
2023/05/03 02:03:24;;;;;;;1.40;1.40;;;;;;;9.48;94.77;96080.56;4346848;32;20236;-58
2023/05/03 02:05:50;;;;;;;1.07;1.07;;;;;;;9.46;94.78;96079.22;4336079;32;20244;-58
2023/05/03 02:08:16;;;;;;;1.67;1.57;;;;;;;9.42;94.50;96081.59;4351287;32;20180;-58
2023/05/03 02:10:44;;;;;;;0.80;0.80;;;;;;;9.48;95.43;96088.50;4313584;32;20257;-58
2023/05/03 02:13:10;;;;;;;1.23;1.23;;;;;;;9.36;96.00;96093.25;4318169;32;20203;-57
2023/05/03 02:15:36;;;;;;;2.13;1.40;;;;;;;9.34;96.07;96089.31;4343194;32;20303;-59
2023/05/03 02:18:04;;;;;;;1.50;1.50;;;;;;;9.49;95.62;96090.09;4330345;32;20185;-58
2023/05/03 02:20:34;;;;;;;1.80;1.73;;;;;;;9.32;96.36;96092.22;4310067;32;20348;-58
2023/05/03 02:23:04;;;;;;;1.17;1.17;;;;;;;9.39;96.38;96092.72;4329904;32;20193;-58
2023/05/03 02:25:30;;;;;;;1.60;1.57;;;;;;;9.27;96.50;96092.22;4364655;32;20285;-58
2023/05/03 02:27:56;;;;;;;2.53;1.77;;;;;;;9.46;96.15;96092.47;4318391;32;20185;-58
2023/05/03 02:30:26;;;;;;;1.97;1.63;;;;;;;9.41;96.00;96085.31;4358675;32;20221;-58
2023/05/03 02:32:51;;;;;;;2.43;2.23;;;;;;;9.55;95.87;96091.69;4374309;32;20220;-61
2023/05/03 02:35:21;;;;;;;1.20;1.20;;;;;;;9.38;96.08;96091.13;4311543;32;20198;-58
2023/05/03 02:37:48;;;;;;;1.00;1.00;;;;;;;9.37;96.00;96088.75;4361054;32;20199;-58
2023/05/03 02:40:14;;;;;;;1.70;1.60;;;;;;;9.46;95.75;96087.16;4337199;32;20185;-58
2023/05/03 02:42:40;;;;;;;1.83;1.77;;;;;;;9.41;95.87;96089.81;4312666;32;20279;-57
2023/05/03 02:45:06;;;;;;;1.20;1.20;;;;;;;9.49;95.71;96081.34;4330619;32;20242;-58
2023/05/03 02:47:33;;;;;;;1.80;1.70;;;;;;;9.56;95.61;96089.81;4358818;32;20197;-58
2023/05/03 02:49:58;;;;;;;1.93;1.83;;;;;;;9.59;95.11;96081.31;4362459;32;20195;-58
2023/05/03 02:52:26;;;;;;;2.47;2.17;;;;;;;9.55;95.09;96086.38;4369638;32;20228;-58
2023/05/03 02:54:52;;;;;;;1.77;1.67;;;;;;;9.37;95.62;96084.25;4378479;32;20192;-57
2023/05/03 02:57:20;;;;;;;1.70;1.60;;;;;;;9.37;96.81;96083.47;4346994;32;20276;-59
2023/05/03 02:59:47;;;;;;;1.73;1.50;;;;;;;9.37;96.66;96084.25;4366270;32;20267;-57
2023/05/03 03:02:12;;;;;;;2.00;1.90;;;;;;;9.63;95.57;96088.47;4353170;32;20264;-58
2023/05/03 03:04:37;;;;;;;1.70;1.70;;;;;;;9.56;96.00;96077.34;4374377;32;20347;-58
2023/05/03 03:07:04;;;;;;;2.00;1.90;;;;;;;9.51;96.38;96084.53;4358035;32;20212;-57
2023/05/03 03:09:33;;;;;;;1.93;1.73;;;;;;;9.50;96.48;96081.06;4379198;32;20255;-57
2023/05/03 03:12:03;;;;;;;1.67;1.60;;;;;;;9.65;95.40;96090.84;4384705;32;20196;-57
2023/05/03 03:14:29;;;;;;;1.20;1.20;;;;;;;9.63;95.45;96082.38;4354498;32;20278;-57
2023/05/03 03:16:55;;;;;;;1.80;1.80;;;;;;;9.60;95.23;96081.03;4356569;32;20213;-61
2023/05/03 03:19:21;;;;;;;1.27;1.17;;;;;;;9.50;96.22;96089.03;4335886;32;20184;-58
2023/05/03 03:21:49;;;;;;;2.60;1.57;;;;;;;9.61;95.59;96089.78;4349698;32;20286;-58
2023/05/03 03:24:14;;;;;;;1.13;1.13;;;;;;;9.29;96.46;96090.91;4346639;32;20196;-58
2023/05/03 03:26:41;;;;;;;1.90;1.80;;;;;;;9.24;96.79;96096.19;4356714;32;20357;-58
2023/05/03 03:29:09;;;;;;;1.17;1.17;;;;;;;9.33;96.59;96085.88;4361251;32;20192;-57
2023/05/03 03:31:37;;;;;;;1.10;1.10;;;;;;;9.39;96.57;96089.28;4365912;32;20227;-57
2023/05/03 03:34:05;;;;;;;2.13;2.03;;;;;;;9.41;95.77;96089.81;4367281;32;20195;-57
2023/05/03 03:36:32;;;;;;;1.50;1.40;;;;;;;9.39;95.74;96092.72;4355523;32;20216;-57
2023/05/03 03:38:58;;;;;;;1.77;1.73;;;;;;;9.32;96.33;96091.44;4361553;32;20184;-58
2023/05/03 03:41:24;;;;;;;1.53;1.53;;;;;;;9.16;96.84;96082.69;4340571;32;20185;-59
2023/05/03 03:43:52;;;;;;;1.87;1.77;;;;;;;9.18;97.31;96080.56;4368645;32;20184;-58
2023/05/03 03:46:18;;;;;;;1.50;1.50;;;;;;;9.07;97.57;96089.56;4348352;32;20181;-57
2023/05/03 03:48:46;;;;;;;1.47;1.47;;;;;;;9.35;96.94;96097.00;4380980;32;20192;-58
2023/05/03 03:51:12;;;;;;;1.57;1.47;;;;;;;9.32;96.94;96091.44;4365927;32;20177;-58
2023/05/03 03:53:39;;;;;;;2.50;2.40;;;;;;;9.26;97.54;96093.28;4342609;32;20201;-58
2023/05/03 03:56:07;;;;;;;2.80;2.57;;;;;;;9.40;98.14;96094.31;4338418;32;20193;-57
2023/05/03 03:58:33;;;;;;;1.60;1.57;;;;;;;9.46;97.79;96087.16;4355987;32;20194;-57
2023/05/03 04:00:59;;;;;;;2.20;2.03;;;;;;;9.53;96.80;96083.19;4353963;32;20180;-58
2023/05/03 04:03:26;;;;;;;2.30;2.20;;;;;;;9.59;96.38;96092.69;4340739;32;20244;-58
2023/05/03 04:05:53;;;;;;;1.40;1.40;;;;;;;9.63;96.23;96096.41;4349845;32;20185;-58
2023/05/03 04:08:23;;;;;;;2.07;2.00;;;;;;;9.65;96.21;96096.16;4386470;32;20184;-57
2023/05/03 04:10:49;;;;;;;2.03;1.93;;;;;;;9.40;96.58;96090.87;4384964;32;20180;-59
2023/05/03 04:13:16;;;;;;;2.27;2.17;;;;;;;9.39;97.24;96097.22;4305643;32;20249;-58
2023/05/03 04:15:43;;;;;;;2.40;2.30;;;;;;;9.55;96.10;96096.19;4366869;32;20188;-57
2023/05/03 04:18:10;;;;;;;3.20;3.00;;;;;;;9.18;98.14;96099.09;4355541;32;21815;-58
2023/05/03 04:20:37;;;;;;;2.47;2.37;;;;;;;9.15;98.82;96103.06;4383260;32;20241;-57
2023/05/03 04:23:04;;;;;;;3.37;3.07;;;;;;;9.17;98.98;96102.78;4364897;32;20243;-58
2023/05/03 04:25:35;;;;;;;1.50;1.40;;;;;;;9.07;99.14;96100.16;4352047;32;20274;-57
2023/05/03 04:28:01;;;;;;;2.10;2.03;;;;;;;9.06;99.28;96106.50;4374612;32;20199;-57
2023/05/03 04:30:28;;;;;;;1.90;1.80;;;;;;;8.94;99.83;96107.53;4363430;32;20177;-57
2023/05/03 04:32:59;;;;;;;1.90;1.83;;;;;;;8.87;100.00;96107.03;4376759;32;20207;-57
2023/05/03 04:35:28;;;;;;;1.67;1.63;;;;;;;9.06;100.00;96107.31;4317573;32;20193;-58
2023/05/03 04:37:54;;;;;;;2.30;2.20;;;;;;;9.10;100.00;96107.56;4341602;32;20191;-57
2023/05/03 04:40:25;;;;;;;1.43;1.43;;;;;;;9.15;99.82;96108.34;4379406;32;20236;-58
2023/05/03 04:42:52;;;;;;;2.30;2.00;;;;;;;9.21;99.89;96117.88;4366673;32;20200;-58
2023/05/03 04:45:21;;;;;;;2.50;2.40;;;;;;;9.11;100.00;96115.25;4368942;32;20246;-58
2023/05/03 04:47:47;;;;;;;1.93;1.83;;;;;;;9.13;100.00;96125.59;4363897;32;20209;-58
2023/05/03 04:50:14;;;;;;;3.53;3.33;;;;;;;8.94;100.00;96127.91;4362290;32;20384;-58
2023/05/03 04:52:40;;;;;;;2.17;2.07;;;;;;;9.00;100.00;96124.22;4370597;32;20185;-57
2023/05/03 04:55:07;;;;;;;3.33;3.03;;;;;;;9.16;100.00;96122.37;4377048;32;20315;-60
2023/05/03 04:57:34;;;;;;;2.70;2.60;;;;;;;9.08;100.00;96133.50;4372878;32;20224;-58
2023/05/03 05:00:00;;;;;;;17.13;2.53;;;;;;;9.04;100.00;96133.22;4366308;32;20223;-57
2023/05/03 05:02:30;;;;;;;2.70;2.57;;;;;;;9.03;100.00;96131.66;4338633;32;20269;-57
2023/05/03 05:04:58;;;;;;;3.00;2.90;;;;;;;9.05;100.00;96126.09;4350639;32;20227;-57
2023/05/03 05:07:23;;;;;;;2.73;2.53;;;;;;;9.17;100.00;96131.91;4329049;32;20262;-57
2023/05/03 05:09:49;;;;;;;3.80;3.60;;;;;;;9.16;100.00;96123.19;4365508;32;20312;-61
2023/05/03 05:12:16;;;;;;;3.33;3.13;;;;;;;9.34;100.00;96135.13;4372601;32;20188;-57
2023/05/03 05:14:43;;;;;;;3.90;3.70;;;;;;;9.37;100.00;96137.22;4377847;32;20270;-58
2023/05/03 05:17:11;;;;;;;2.77;2.63;;;;;;;9.46;100.00;96143.56;4313822;32;20295;-58
2023/05/03 05:19:37;;;;;;;3.27;3.13;;;;;;;9.42;100.00;96144.37;4384788;32;20203;-58
2023/05/03 05:22:03;;;;;;;3.33;3.13;;;;;;;9.45;100.00;96133.25;4365675;32;20177;-58
2023/05/03 05:24:30;;;;;;;3.50;3.30;;;;;;;9.45;100.00;96139.34;4353713;32;20288;-58
2023/05/03 05:26:57;;;;;;;3.97;3.77;;;;;;;9.42;100.00;96145.16;4359012;32;20188;-58
2023/05/03 05:29:25;;;;;;;3.23;3.03;;;;;;;9.62;100.00;96139.84;4366385;32;20197;-57
2023/05/03 05:31:53;;;;;;;3.13;2.93;;;;;;;9.69;100.00;96141.44;4362888;32;20236;-57
2023/05/03 05:34:18;;;;;;;3.00;2.83;;;;;;;9.57;100.00;96141.69;4341887;32;20185;-57
2023/05/03 05:36:44;;;;;;;4.03;3.83;;;;;;;9.71;100.00;96141.97;4291850;32;20251;-58
2023/05/03 05:39:13;;;;;;;4.47;4.07;;;;;;;9.74;100.00;96147.53;4309051;32;20257;-57
2023/05/03 05:41:39;;;;;;;3.97;3.77;;;;;;;9.49;100.00;96151.00;4347441;32;20196;-58
2023/05/03 05:44:08;;;;;;;3.97;3.67;;;;;;;9.52;100.00;96153.13;4376246;32;20256;-58
2023/05/03 05:46:35;;;;;;;5.23;4.90;;;;;;;9.53;100.00;96152.06;4357876;32;20177;-57
2023/05/03 05:49:01;;;;;;;3.13;2.93;;;;;;;9.55;100.00;96160.53;4361746;32;20196;-57
2023/05/03 05:51:27;;;;;;;5.03;4.63;;;;;;;9.60;100.00;96168.47;4336727;32;20210;-57
2023/05/03 05:53:54;;;;;;;4.57;4.27;;;;;;;9.64;100.00;96166.09;4345670;32;20192;-57
2023/05/03 05:56:20;;;;;;;4.47;4.07;;;;;;;9.55;100.00;96160.53;4349881;32;20194;-58
2023/05/03 05:58:46;;;;;;;3.43;3.17;;;;;;;9.41;100.00;96151.50;4328468;32;20189;-57
2023/05/03 06:01:16;;;;;;;4.93;4.47;;;;;;;9.49;100.00;96158.16;4351006;32;20445;-57
2023/05/03 06:03:41;;;;;;;4.53;4.27;;;;;;;9.59;100.00;96158.94;4354398;32;20279;-57
2023/05/03 06:06:08;;;;;;;4.83;4.53;;;;;;;9.54;100.00;96153.66;4335401;32;20256;-56
2023/05/03 06:08:33;;;;;;;5.50;5.00;;;;;;;9.63;100.00;96151.25;4346815;32;20203;-57
2023/05/03 06:11:00;;;;;;;5.87;5.47;;;;;;;9.58;100.00;96162.63;4365420;32;20188;-59
2023/05/03 06:13:25;;;;;;;4.63;4.33;;;;;;;9.49;100.00;96166.09;4353376;32;20294;-58
2023/05/03 06:15:54;;;;;;;3.50;3.40;;;;;;;9.77;100.00;96170.06;4340125;32;20196;-57
2023/05/03 06:18:20;;;;;;;4.60;4.30;;;;;;;9.85;100.00;96165.00;4381226;32;20202;-59
2023/05/03 06:20:49;;;;;;;4.37;4.17;;;;;;;9.84;99.98;96168.72;4381249;32;20193;-57
2023/05/03 06:23:14;;;;;;;4.12;3.83;;;;;;;9.72;100.00;96164.75;4358306;32;20042;-58
2023/05/03 06:25:40;;;;;;;4.37;2.00;;;;;;;9.76;100.00;96179.06;4324116;32;20200;-45
2023/05/03 06:28:07;;;;;;;3.43;2.73;;;;;;;11.25;100.00;96173.75;4345528;32;20231;-47
2023/05/03 06:30:32;;;;;;;2.87;2.43;;;;;;;12.39;100.00;96177.56;4359920;32;20193;-50
2023/05/03 06:32:57;;;;;;;4.83;2.97;;;;;;;13.12;100.00;96178.22;4364929;32;20177;-48
2023/05/03 06:35:24;;;;;;;3.03;2.93;;;;;;;13.72;90.78;96182.69;4386723;32;20184;-49
2023/05/03 06:37:51;;;;;;;3.83;3.53;;;;;;;14.21;86.37;96178.66;4381255;32;20195;-51
2023/05/03 06:40:17;;;;;;;3.50;3.23;;;;;;;14.60;82.96;96180.09;4364316;32;20232;-47
2023/05/03 06:42:45;;;;;;;2.63;2.47;;;;;;;14.90;80.48;96187.50;4355603;32;20199;-48
2023/05/03 06:45:10;;;;;;;3.53;3.33;;;;;;;15.08;79.10;96183.09;4322349;32;20199;-46
2023/05/03 06:47:36;;;;;;;3.80;3.50;;;;;;;15.13;78.58;96188.34;4352358;32;20227;-46
2023/05/03 06:50:01;;;;;;;4.80;4.40;;;;;;;15.20;77.35;96195.94;4370781;32;20193;-48
2023/05/03 06:52:27;;;;;;;2.40;2.20;;;;;;;15.19;76.11;96191.69;4363198;32;20177;-48
2023/05/03 06:54:52;;;;;;;2.87;2.67;;;;;;;15.30;81.22;96193.06;4342273;32;20240;-47
2023/05/03 06:57:19;;;;;;;4.03;3.77;;;;;;;15.39;79.21;96189.34;4382196;32;20179;-45
2023/05/03 06:59:45;;;;;;;3.90;3.67;;;;;;;14.99;78.41;96184.88;4362197;32;20193;-58
2023/05/03 07:02:12;;;;;;;4.03;3.73;;;;;;;13.12;82.33;96204.87;4361848;32;20197;-56
2023/05/03 07:04:38;;;;;;;4.67;3.73;;;;;;;12.92;83.54;96197.94;4367468;32;20184;-59
2023/05/03 07:07:05;;;;;;;4.47;4.13;;;;;;;11.77;88.25;96199.69;4361477;32;20177;-57
2023/05/03 07:09:34;;;;;;;4.10;3.80;;;;;;;11.38;91.33;96193.59;4343883;32;20177;-56
2023/05/03 07:12:02;;;;;;;3.50;3.20;;;;;;;11.18;93.11;96202.50;4376450;32;20212;-56
2023/05/03 07:14:31;;;;;;;4.27;4.07;;;;;;;10.71;95.54;96195.03;4370580;32;20185;-57
2023/05/03 07:16:58;;;;;;;4.57;4.17;;;;;;;10.56;97.25;96185.28;4376676;32;20177;-56
2023/05/03 07:19:24;;;;;;;5.73;5.23;;;;;;;10.63;97.30;96197.16;4382153;32;20177;-56
2023/05/03 07:21:51;;;;;;;4.73;4.37;;;;;;;10.42;98.21;96189.53;4361568;32;20212;-54
2023/05/03 07:24:23;;;;;;;6.00;4.87;;;;;;;10.32;98.30;96185.88;4348969;32;20251;-57
2023/05/03 07:26:50;;;;;;;4.93;4.63;;;;;;;10.22;99.13;96180.59;4372492;32;20206;-58
2023/05/03 07:29:17;;;;;;;3.50;3.30;;;;;;;10.22;98.74;96183.25;4361406;32;20189;-55
2023/05/03 07:32:20;;;;;;;5.00;4.60;;;;;;;10.04;99.56;96190.94;4338934;32;20209;-56
2023/05/03 07:34:39;;;;;;;4.47;4.03;;;;;;;10.14;99.80;96182.97;4369067;32;20197;-55
2023/05/03 07:37:06;;;;;;;5.20;4.80;;;;;;;9.98;99.35;96187.50;4312319;32;20203;-56
2023/05/03 07:39:36;;;;;;;4.63;4.30;;;;;;;10.09;99.25;96178.47;4331431;32;20180;-55
2023/05/03 07:42:02;;;;;;;5.77;5.33;;;;;;;10.10;99.92;96179.28;4375405;32;20185;-56
2023/05/03 07:44:29;;;;;;;4.77;4.47;;;;;;;10.23;100.00;96176.09;4375344;32;20188;-56
2023/05/03 07:46:56;;;;;;;6.30;5.67;;;;;;;10.37;99.71;96181.63;4370910;32;20185;-54
2023/05/03 07:49:23;;;;;;;9.50;4.90;;;;;;;10.57;99.54;96177.03;4360986;32;20244;-54
2023/05/03 07:51:53;;;;;;;4.73;4.47;;;;;;;10.66;99.05;96179.91;4342767;32;20240;-58
2023/05/03 07:54:21;;;;;;;5.87;5.37;;;;;;;10.59;98.12;96185.53;4358755;32;20219;-55
2023/05/03 07:56:54;;;;;;;4.57;4.27;;;;;;;10.72;98.07;96184.13;4377646;32;20172;-54
2023/05/03 07:59:20;;;;;;;5.67;5.17;;;;;;;10.71;97.71;96177.25;4326181;32;20185;-52
2023/05/03 08:01:46;;;;;;;6.00;5.50;;;;;;;10.67;97.62;96184.94;4349238;32;20185;-54
2023/05/03 08:04:13;;;;;;;5.80;4.67;;;;;;;10.86;98.17;96179.03;4355971;32;20278;-50
2023/05/03 08:06:41;;;;;;;5.70;5.30;;;;;;;10.87;97.11;96184.06;4343791;32;20181;-54
2023/05/03 08:09:08;;;;;;;5.67;5.20;;;;;;;11.10;96.74;96185.25;4354410;32;20224;-53
2023/05/03 08:11:35;;;;;;;5.60;5.10;;;;;;;11.05;96.81;96185.28;4368461;32;20189;-55
2023/05/03 08:14:02;;;;;;;5.67;5.20;;;;;;;11.17;96.25;96174.34;4347273;32;20189;-52
2023/05/03 08:16:54;;;;;;;5.43;5.03;;;;;;;11.05;96.86;96173.88;4382135;32;20180;-52
2023/05/03 08:22:45;;;;;;;5.10;4.73;;;;;;;11.41;95.82;96177.09;4361244;32;20204;-56
2023/05/03 08:28:37;;;;;;;6.83;6.13;;;;;;;11.45;95.48;96176.25;4372706;32;20219;-56
2023/05/03 08:31:03;;;;;;;4.80;4.50;;;;;;;11.55;94.55;96172.75;4313230;32;20165;-54
2023/05/03 08:33:31;;;;;;;8.23;6.23;;;;;;;11.84;93.82;96178.12;4348814;32;20199;-55
2023/05/03 08:35:58;;;;;;;6.90;6.27;;;;;;;11.71;93.42;96177.66;4370565;32;20212;-53
2023/05/03 08:38:24;;;;;;;5.80;5.50;;;;;;;11.49;94.41;96171.97;4361127;32;20184;-54
2023/05/03 08:41:00;;;;;;;6.73;5.60;;;;;;;11.68;94.13;96170.22;4357877;32;20168;-56
2023/05/03 08:43:27;;;;;;;7.77;5.87;;;;;;;11.78;94.10;96174.72;4351495;32;20192;-56
2023/05/03 08:45:54;;;;;;;6.30;5.90;;;;;;;11.83;94.18;96177.31;4317438;32;20219;-55
2023/05/03 08:48:20;;;;;;;8.10;6.07;;;;;;;11.92;93.00;96169.53;4364698;32;20212;-55
2023/05/03 08:50:50;;;;;;;5.57;5.27;;;;;;;11.98;93.33;96174.53;4352020;32;20181;-55
2023/05/03 08:53:17;;;;;;;5.00;4.70;;;;;;;12.08;93.63;96172.81;4305895;33;20174;-51
2023/05/03 08:55:44;;;;;;;5.50;5.10;;;;;;;12.12;93.88;96176.50;4319186;32;20303;-53
2023/05/03 08:58:11;;;;;;;5.83;5.40;;;;;;;11.91;93.66;96174.03;4351882;32;20362;-56
2023/05/03 09:00:37;;;;;;;7.70;5.77;;;;;;;12.08;93.34;96167.50;4362798;32;20224;-55
2023/05/03 09:03:03;;;;;;;6.53;5.93;;;;;;;12.13;93.21;96162.94;4326023;32;20283;-55
2023/05/03 09:05:33;;;;;;;4.30;4.10;;;;;;;12.08;93.05;96173.63;4346552;32;20185;-54
2023/05/03 09:08:04;;;;;;;5.27;4.97;;;;;;;11.77;93.70;96174.97;4371928;32;20180;-54
2023/05/03 09:10:31;;;;;;;5.57;5.00;;;;;;;11.91;93.58;96173.25;4335282;32;20249;-53
2023/05/03 09:13:00;;;;;;;5.23;4.83;;;;;;;12.09;92.95;96175.19;4324894;32;20270;-52
2023/05/03 09:15:31;;;;;;;4.93;4.63;;;;;;;12.15;93.76;96168.75;4344457;32;20177;-53
2023/05/03 09:18:29;;;;;;;6.10;4.93;;;;;;;12.12;93.51;96176.50;4340582;32;20185;-52
2023/05/03 09:20:56;;;;;;;3.70;3.50;;;;;;;12.21;91.69;96183.59;4336831;32;20177;-52
2023/05/03 09:23:31;;;;;;;5.03;4.53;;;;;;;12.31;91.00;96186.16;4350378;32;20195;-52
2023/05/03 09:25:58;;;;;;;4.97;4.63;;;;;;;12.24;90.88;96185.72;4347427;32;20236;-53
2023/05/03 09:28:40;;;;;;;4.43;4.03;;;;;;;12.19;91.56;96179.62;4347853;32;20195;-56
2023/05/03 09:31:07;;;;;;;5.93;4.97;;;;;;;12.39;90.74;96177.56;4327698;32;20180;-53
2023/05/03 09:33:35;;;;;;;4.43;4.03;;;;;;;12.38;90.72;96178.62;4342354;32;20283;-56
2023/05/03 09:36:08;;;;;;;3.80;3.60;;;;;;;12.48;90.77;96179.56;4321734;32;20204;-55
2023/05/03 09:38:45;;;;;;;5.37;5.07;;;;;;;12.44;91.09;96176.72;4330796;32;20177;-54
2023/05/03 09:41:30;;;;;;;3.70;3.50;;;;;;;12.54;90.24;96175.78;4348376;32;20199;-55
2023/05/03 09:44:01;;;;;;;4.33;4.07;;;;;;;12.41;91.02;96182.59;4327837;32;20216;-53
2023/05/03 09:46:31;;;;;;;3.63;3.43;;;;;;;12.38;90.77;96173.31;4359447;32;20251;-54
2023/05/03 09:48:58;;;;;;;5.17;4.77;;;;;;;12.60;90.27;96169.34;4349247;32;20248;-55
2023/05/03 09:51:28;;;;;;;5.57;5.17;;;;;;;12.65;90.06;96177.25;4358152;32;20181;-54
2023/05/03 09:53:57;;;;;;;4.37;4.13;;;;;;;12.58;89.49;96169.63;4346951;32;20185;-56
2023/05/03 09:56:25;;;;;;;4.97;4.57;;;;;;;12.57;90.36;96167.25;4371819;32;20256;-52
2023/05/03 09:58:53;;;;;;;5.13;4.83;;;;;;;12.50;91.39;96156.94;4362317;32;20263;-60
2023/05/03 10:01:22;;;;;;;4.70;4.30;;;;;;;12.61;91.63;96161.06;4370360;32;20272;-57
2023/05/03 10:03:53;;;;;;;4.63;4.30;;;;;;;12.77;90.46;96160.88;4359073;32;20203;-55
2023/05/03 10:06:37;;;;;;;5.30;4.90;;;;;;;12.88;90.02;96159.66;4346813;32;20189;-59
2023/05/03 10:09:13;;;;;;;5.37;5.07;;;;;;;13.03;89.75;96152.25;4365359;32;20252;-57
2023/05/03 10:11:46;;;;;;;5.50;5.07;;;;;;;13.03;87.74;96152.25;4371999;32;20199;-57
2023/05/03 10:14:13;;;;;;;3.97;3.77;;;;;;;13.24;87.80;96152.78;4362070;32;20233;-57
2023/05/03 10:16:47;;;;;;;5.13;4.73;;;;;;;13.33;88.40;96151.03;4364643;32;20199;-56
2023/05/03 10:19:38;;;;;;;5.83;4.33;;;;;;;13.45;87.74;96142.59;4358521;32;20210;-57
2023/05/03 10:22:14;;;;;;;5.20;4.80;;;;;;;13.40;86.99;96145.34;4363686;32;20192;-56
2023/05/03 10:25:10;;;;;;;5.67;5.20;;;;;;;13.32;88.23;96141.47;4357977;32;20299;-56
2023/05/03 10:28:02;;;;;;;5.40;5.00;;;;;;;13.43;87.51;96144.78;4348871;32;20230;-57
2023/05/03 10:30:38;;;;;;;6.00;5.57;;;;;;;13.27;87.72;96143.44;4346588;32;20192;-57
2023/05/03 10:33:12;;;;;;;4.93;4.63;;;;;;;13.42;89.11;96143.19;4341386;32;20264;-57
2023/05/03 10:35:52;;;;;;;5.67;5.17;;;;;;;13.46;87.15;96141.53;4362876;32;20311;-56
2023/05/03 10:38:26;;;;;;;6.40;5.93;;;;;;;13.48;86.35;96136.69;4350258;32;20259;-55
2023/05/03 10:40:55;;;;;;;4.77;4.47;;;;;;;13.45;88.01;96137.28;4367020;32;20195;-57
2023/05/03 10:43:30;;;;;;;4.47;4.27;;;;;;;13.52;87.41;96139.56;4357025;32;20176;-58
2023/05/03 10:46:10;;;;;;;6.10;5.63;;;;;;;13.47;87.75;96135.13;4336937;32;20292;-55
2023/05/03 10:48:37;;;;;;;7.30;6.67;;;;;;;13.45;87.49;96129.28;4333984;32;20188;-56
2023/05/03 10:57:47;;;;;;;6.57;6.03;;;;;;;13.55;87.72;96139.78;4345863;32;20191;-56
2023/05/03 11:00:29;;;;;;;7.20;6.60;;;;;;;13.64;87.33;96130.03;4352360;32;20291;-57
2023/05/03 11:03:14;;;;;;;8.00;7.27;;;;;;;13.62;88.67;96126.06;4365947;32;20180;-57
2023/05/03 11:05:39;;;;;;;7.57;6.70;;;;;;;13.74;87.98;96129.84;4303251;32;20269;-57
2023/05/03 11:08:17;;;;;;;5.97;5.53;;;;;;;13.57;87.71;96126.94;4335831;32;20199;-57
2023/05/03 11:10:46;;;;;;;6.13;5.40;;;;;;;13.61;87.09;96129.81;4352983;32;20279;-56
2023/05/03 11:13:14;;;;;;;7.13;6.63;;;;;;;13.67;86.87;96126.78;4360923;32;20192;-57
2023/05/03 11:15:44;;;;;;;6.13;5.70;;;;;;;13.85;86.95;96129.69;4358324;32;20249;-56
2023/05/03 11:18:10;;;;;;;6.33;4.97;;;;;;;13.64;86.62;96130.03;4362998;32;20294;-58
2023/05/03 11:20:37;;;;;;;7.77;7.07;;;;;;;13.60;86.85;96123.69;4361104;32;20231;-57
2023/05/03 11:23:07;;;;;;;7.10;5.83;;;;;;;13.68;86.48;96123.03;4380303;32;20192;-56
2023/05/03 11:25:35;;;;;;;4.70;4.40;;;;;;;13.84;84.95;96120.09;4364718;32;20180;-55
2023/05/03 11:28:02;;;;;;;5.10;4.77;;;;;;;13.91;85.04;96117.84;4334830;32;20197;-57
2023/05/03 11:30:32;;;;;;;4.83;4.63;;;;;;;13.89;84.21;96125.34;4340101;32;20252;-58
2023/05/03 11:32:58;;;;;;;6.53;6.13;;;;;;;13.93;84.54;96110.31;4381140;32;20184;-58
2023/05/03 11:35:31;;;;;;;6.07;5.67;;;;;;;14.08;84.34;96112.72;4373460;32;20192;-54
2023/05/03 11:37:59;;;;;;;9.80;7.40;;;;;;;14.02;84.53;96114.69;4377606;32;20363;-53
2023/05/03 11:40:24;;;;;;;5.30;4.90;;;;;;;14.04;84.78;96101.06;4346459;32;20227;-57
2023/05/03 11:42:55;;;;;;;4.57;4.27;;;;;;;14.02;85.13;96098.69;4362575;32;20196;-57
2023/05/03 11:45:47;;;;;;;5.43;5.07;;;;;;;14.07;83.92;96103.94;4379212;32;20188;-57
2023/05/03 11:48:17;;;;;;;6.60;6.10;;;;;;;14.03;82.36;96104.81;4352459;32;20317;-55
2023/05/03 11:51:08;;;;;;;8.20;6.97;;;;;;;14.10;84.18;96108.69;4347875;32;20177;-55
2023/05/03 11:53:38;;;;;;;6.50;6.00;;;;;;;14.23;83.46;96100.97;4371368;32;20185;-56
2023/05/03 11:56:14;;;;;;;5.10;4.90;;;;;;;14.29;83.45;96097.09;4315791;32;20192;-57
2023/05/03 11:58:56;;;;;;;6.20;5.83;;;;;;;14.36;81.15;96106.28;4362143;32;20206;-56
2023/05/03 12:01:27;;;;;;;4.80;4.57;;;;;;;14.37;81.99;96101.72;4368785;32;20181;-57